Time;durP1;ratioP1;P1;durP2;ratioP2;P2;SDS_P1;SDS_P2;PMS_P1;PMS_P2;Temp;Humidity;BMP_temperature;BMP_pressure;BME280_temperature;BME280_humidity;BME280_pressure;Samples;Min_cycle;Max_cycle;Signal;HPM_P1;HPM_P2
2023/08/05 00:00:35;;;;;;;10.00;7.50;;;;;;;27.11;61.32;100451.17;103980;1270;59089;-58
2023/08/05 00:03:02;;;;;;;13.20;8.20;;;;;;;27.09;61.26;100448.75;104256;1270;63303;-59
2023/08/05 00:05:30;;;;;;;11.10;7.70;;;;;;;27.04;61.25;100451.15;103995;1269;60086;-58
2023/08/05 00:07:58;;;;;;;9.60;7.40;;;;;;;26.98;61.52;100449.20;104030;1266;64168;-59
2023/08/05 00:10:25;;;;;;;10.20;8.40;;;;;;;26.91;61.76;100447.64;104766;1264;207212;-60
2023/08/05 00:12:53;;;;;;;9.40;8.00;;;;;;;26.85;61.80;100444.58;104519;1264;59497;-60
2023/08/05 00:15:20;;;;;;;10.00;7.20;;;;;;;26.80;61.91;100449.66;104362;1263;63311;-60
2023/08/05 00:17:48;;;;;;;8.40;7.10;;;;;;;26.77;61.82;100451.58;104170;1268;61397;-60
2023/08/05 00:20:16;;;;;;;9.50;7.40;;;;;;;26.74;61.60;100452.06;104078;1264;62470;-60
2023/08/05 00:22:44;;;;;;;9.20;7.20;;;;;;;26.69;61.65;100452.88;104282;1263;59666;-59
2023/08/05 00:25:11;;;;;;;8.80;7.30;;;;;;;26.65;61.81;100451.52;104998;1257;59559;-59
2023/08/05 00:27:39;;;;;;;9.70;7.90;;;;;;;26.62;61.89;100451.84;105081;1251;62852;-59
2023/08/05 00:30:07;;;;;;;9.30;8.00;;;;;;;26.56;62.14;100446.22;105812;1254;61367;-60
2023/08/05 00:32:36;;;;;;;11.00;7.40;;;;;;;26.54;62.27;100444.21;104899;1257;65918;-59
2023/08/05 00:35:05;;;;;;;8.30;6.80;;;;;;;26.52;62.25;100444.96;104779;1257;60958;-59
2023/08/05 00:37:33;;;;;;;9.10;7.50;;;;;;;26.51;62.29;100443.40;109195;1251;61288;-61
2023/08/05 00:40:00;;;;;;;9.20;8.30;;;;;;;26.51;62.26;100439.13;105759;1256;64818;-59
2023/08/05 00:42:28;;;;;;;9.40;8.10;;;;;;;26.50;62.21;100441.59;105084;1254;60308;-60
2023/08/05 00:44:56;;;;;;;8.90;8.00;;;;;;;26.48;62.08;100440.55;105226;1253;63666;-60
2023/08/05 00:47:23;;;;;;;9.70;8.10;;;;;;;26.44;62.15;100439.89;104776;1254;59660;-60
2023/08/05 00:49:53;;;;;;;10.10;7.90;;;;;;;26.40;62.18;100440.10;105502;1258;59726;-60
2023/08/05 00:52:21;;;;;;;10.50;8.60;;;;;;;26.37;62.22;100438.35;104938;1251;64160;-60
2023/08/05 00:54:48;;;;;;;12.30;8.10;;;;;;;26.36;62.15;100436.05;105123;1257;60103;-59
2023/08/05 00:57:16;;;;;;;10.10;8.10;;;;;;;26.33;62.24;100434.58;104987;1257;63738;-60
2023/08/05 00:59:43;;;;;;;12.80;8.90;;;;;;;26.28;62.35;100429.36;104966;1257;59743;-60
2023/08/05 01:02:11;;;;;;;10.00;8.20;;;;;;;26.24;62.55;100429.71;104663;1251;59676;-59
2023/08/05 01:04:39;;;;;;;10.30;8.50;;;;;;;26.20;62.72;100427.67;105128;1253;62882;-59
2023/08/05 01:07:06;;;;;;;9.70;8.00;;;;;;;26.17;62.74;100427.01;105168;1256;60119;-58
2023/08/05 01:09:34;;;;;;;10.70;8.40;;;;;;;26.14;62.68;100428.44;104911;1253;65735;-60
2023/08/05 01:12:01;;;;;;;9.60;7.90;;;;;;;26.10;62.64;100427.07;104764;1253;59804;-60
2023/08/05 01:14:29;;;;;;;10.50;7.80;;;;;;;26.07;62.79;100428.70;105209;1254;59777;-61
2023/08/05 01:16:57;;;;;;;10.70;8.30;;;;;;;26.06;62.98;100432.15;104920;1257;64215;-61
2023/08/05 01:19:25;;;;;;;12.70;8.30;;;;;;;26.04;63.04;100431.99;105668;1254;60180;-60
2023/08/05 01:22:21;;;;;;;11.90;8.20;;;;;;;26.02;63.16;100430.04;106201;1254;65878;-61
2023/08/05 01:25:31;;;;;;;12.50;8.70;;;;;;;25.99;63.25;100434.86;106111;1253;59738;-63
2023/08/05 01:27:59;;;;;;;10.90;8.80;;;;;;;25.94;63.41;100435.27;105114;1253;59801;-59
2023/08/05 01:30:27;;;;;;;10.00;8.20;;;;;;;25.91;63.43;100435.45;105259;1256;62913;-60
2023/08/05 01:32:55;;;;;;;13.30;8.60;;;;;;;25.91;63.59;100435.67;105212;1257;61230;-59
2023/08/05 01:35:23;;;;;;;12.00;8.50;;;;;;;25.91;63.61;100435.42;105001;1257;64128;-59
2023/08/05 01:37:51;;;;;;;11.30;9.10;;;;;;;25.92;63.58;100438.40;105400;1253;59746;-59
2023/08/05 01:40:18;;;;;;;14.00;9.10;;;;;;;25.89;63.60;100438.14;104882;1253;59791;-59
2023/08/05 01:42:45;;;;;;;10.10;8.10;;;;;;;25.85;63.83;100440.88;105047;1252;64499;-59
2023/08/05 01:45:13;;;;;;;15.50;8.10;;;;;;;25.83;63.91;100443.63;105198;1257;60497;-59
2023/08/05 01:47:41;;;;;;;11.40;8.30;;;;;;;25.84;63.92;100444.50;104796;1258;64376;-60
2023/08/05 01:50:08;;;;;;;9.50;8.10;;;;;;;25.85;63.91;100443.33;104810;1261;59627;-59
2023/08/05 01:52:36;;;;;;;10.60;9.20;;;;;;;25.87;63.80;100443.48;105441;1257;59644;-60
2023/08/05 01:55:04;;;;;;;10.70;8.90;;;;;;;25.86;63.75;100452.44;105018;1251;64128;-59
2023/08/05 01:57:32;;;;;;;11.20;9.40;;;;;;;25.83;63.98;100454.78;105082;1253;61358;-59
2023/08/05 01:59:59;;;;;;;11.20;8.90;;;;;;;25.80;64.26;100456.84;105322;1253;63683;-59
2023/08/05 02:02:27;;;;;;;8.80;7.70;;;;;;;25.80;64.38;100458.89;104979;1254;59752;-59
2023/08/05 02:04:55;;;;;;;11.90;7.90;;;;;;;25.80;64.50;100459.33;105457;1256;60413;-59
2023/08/05 02:07:22;;;;;;;10.80;9.40;;;;;;;25.80;64.50;100463.90;105435;1252;64130;-59
2023/08/05 02:09:50;;;;;;;11.00;9.20;;;;;;;25.80;64.47;100460.98;105034;1257;61787;-59
2023/08/05 02:12:17;;;;;;;10.50;9.00;;;;;;;25.78;64.66;100459.55;105080;1252;62500;-59
2023/08/05 02:14:45;;;;;;;10.40;9.30;;;;;;;25.76;64.72;100460.98;105320;1256;59658;-59
2023/08/05 02:17:12;;;;;;;10.50;9.40;;;;;;;25.73;64.77;100462.84;104876;1254;59776;-58
2023/08/05 02:19:40;;;;;;;10.60;8.50;;;;;;;25.72;64.85;100463.60;105053;1257;64707;-60
2023/08/05 02:22:07;;;;;;;13.30;9.40;;;;;;;25.73;64.86;100461.92;105107;1256;63703;-66
2023/08/05 02:24:35;;;;;;;10.50;8.70;;;;;;;25.74;64.80;100462.88;104856;1253;62476;-60
2023/08/05 02:27:03;;;;;;;10.60;8.70;;;;;;;25.75;64.75;100469.40;104893;1254;59746;-59
2023/08/05 02:29:30;;;;;;;10.20;9.10;;;;;;;25.74;64.81;100471.98;105252;1253;59763;-57
2023/08/05 02:31:58;;;;;;;12.20;9.90;;;;;;;25.73;64.82;100474.86;104929;1251;62852;-60
2023/08/05 02:34:26;;;;;;;9.60;8.60;;;;;;;25.71;64.95;100475.05;104870;1253;61308;-60
2023/08/05 02:36:54;;;;;;;9.60;8.60;;;;;;;25.70;65.07;100477.61;104960;1253;63775;-59
2023/08/05 02:39:21;;;;;;;14.60;9.30;;;;;;;25.69;64.99;100479.05;105006;1253;60448;-61
2023/08/05 02:41:49;;;;;;;10.30;8.80;;;;;;;25.69;65.23;100484.69;105379;1253;61965;-60
2023/08/05 02:44:16;;;;;;;10.30;9.20;;;;;;;25.71;65.27;100485.55;104948;1253;65368;-59
2023/08/05 02:46:44;;;;;;;12.40;8.90;;;;;;;25.73;65.28;100483.73;105484;1257;60167;-59
2023/08/05 02:49:12;;;;;;;10.40;9.30;;;;;;;25.71;65.22;100483.26;105992;1253;63816;-60
2023/08/05 02:51:39;;;;;;;11.30;9.60;;;;;;;25.70;65.18;100486.16;105027;1257;59745;-60
2023/08/05 02:54:07;;;;;;;14.20;9.10;;;;;;;25.69;65.11;100488.91;105277;1253;60445;-60
2023/08/05 02:56:34;;;;;;;10.90;8.90;;;;;;;25.69;64.98;100491.52;105032;1253;62829;-60
2023/08/05 02:59:02;;;;;;;10.30;9.00;;;;;;;25.68;65.16;100489.98;105418;1252;60765;-60
2023/08/05 03:01:30;;;;;;;10.50;9.20;;;;;;;25.70;65.20;100485.09;105058;1253;63763;-60
2023/08/05 03:03:58;;;;;;;10.30;8.40;;;;;;;25.72;65.07;100484.20;105345;1258;59765;-59
2023/08/05 03:06:25;;;;;;;11.30;9.50;;;;;;;25.73;65.09;100486.92;104743;1253;59774;-59
2023/08/05 03:08:53;;;;;;;12.20;9.50;;;;;;;25.73;65.18;100488.29;107865;1253;64194;-58
2023/08/05 03:11:21;;;;;;;9.80;8.80;;;;;;;25.74;65.14;100489.13;104980;1253;61974;-58
2023/08/05 03:13:49;;;;;;;11.10;9.00;;;;;;;25.75;64.91;100489.52;104756;1256;63724;-58
2023/08/05 03:16:16;;;;;;;10.30;8.70;;;;;;;25.76;64.87;100490.42;104982;1253;59733;-59
2023/08/05 03:18:50;;;;;;;9.70;8.50;;;;;;;25.80;64.83;100493.17;104788;1257;60302;-59
2023/08/05 03:21:17;;;;;;;12.10;9.00;;;;;;;25.83;64.64;100494.06;105131;1253;66967;-60
2023/08/05 03:23:45;;;;;;;16.30;9.10;;;;;;;25.82;64.47;100497.01;107189;1253;60485;-58
2023/08/05 03:26:13;;;;;;;11.10;8.70;;;;;;;25.82;64.42;100497.70;104870;1253;63893;-62
2023/08/05 03:28:41;;;;;;;10.90;8.50;;;;;;;25.84;64.14;100491.96;105864;1255;59893;-59
2023/08/05 03:31:09;;;;;;;10.10;8.60;;;;;;;25.88;64.03;100488.58;105164;1254;59728;-60
2023/08/05 03:33:37;;;;;;;10.20;8.60;;;;;;;25.92;63.92;100488.59;104917;1257;64124;-63
2023/08/05 03:36:05;;;;;;;10.30;8.60;;;;;;;25.96;63.67;100491.96;105971;1253;61355;-65
2023/08/05 03:38:33;;;;;;;10.10;8.90;;;;;;;25.99;63.45;100491.21;104852;1257;62444;-63
2023/08/05 03:41:04;;;;;;;13.30;9.60;;;;;;;26.00;63.50;100490.27;104800;1253;59747;-64
2023/08/05 03:43:32;;;;;;;10.50;9.20;;;;;;;26.00;63.53;100490.06;104899;1257;59561;-62
2023/08/05 03:46:01;;;;;;;11.00;9.00;;;;;;;26.01;63.49;100492.29;107417;1253;65095;-68
2023/08/05 03:48:29;;;;;;;13.90;8.50;;;;;;;26.03;63.53;100495.77;104862;1258;61374;-64
2023/08/05 03:50:56;;;;;;;12.60;8.60;;;;;;;26.07;63.49;100497.92;104888;1254;63787;-60
2023/08/05 03:53:26;;;;;;;10.70;8.60;;;;;;;26.12;63.40;100502.07;105174;1253;60961;-65
2023/08/05 03:55:53;;;;;;;11.60;8.60;;;;;;;26.15;63.25;100494.20;104956;1253;60236;-64
2023/08/05 03:58:22;;;;;;;10.90;9.30;;;;;;;26.19;63.12;100489.44;105634;1256;64053;-65
2023/08/05 04:00:51;;;;;;;10.20;8.30;;;;;;;26.21;63.06;100487.86;105381;1254;62964;-62
2023/08/05 04:03:19;;;;;;;10.90;8.70;;;;;;;26.23;63.16;100492.50;105370;1252;63825;-59
2023/08/05 04:05:47;;;;;;;11.10;8.50;;;;;;;26.26;63.14;100492.63;105288;1253;60693;-62
2023/08/05 04:08:17;;;;;;;10.00;7.90;;;;;;;26.29;62.97;100491.10;104943;1252;60325;-62
2023/08/05 04:10:45;;;;;;;11.30;8.80;;;;;;;26.34;62.79;100491.51;105913;1253;65005;-64
2023/08/05 04:13:16;;;;;;;10.90;8.70;;;;;;;26.38;62.76;100492.37;104872;1253;62387;-67
2023/08/05 04:15:45;;;;;;;10.50;9.10;;;;;;;26.39;62.77;100487.45;105339;1253;64142;-60
2023/08/05 04:18:13;;;;;;;10.70;8.30;;;;;;;26.41;62.84;100490.23;105170;1254;60627;-63
2023/08/05 04:20:41;;;;;;;11.20;8.20;;;;;;;26.46;62.65;100490.83;104997;1253;60797;-60
2023/08/05 04:23:09;;;;;;;10.50;8.20;;;;;;;26.50;62.27;100487.23;105436;1253;67339;-58
2023/08/05 04:25:36;;;;;;;9.20;8.20;;;;;;;26.54;61.85;100485.79;105037;1253;61514;-60
2023/08/05 04:28:04;;;;;;;11.00;8.20;;;;;;;26.60;61.44;100493.86;104896;1254;62529;-58
2023/08/05 04:30:31;;;;;;;9.70;8.30;;;;;;;26.62;61.22;100496.95;105021;1257;61217;-57
2023/08/05 04:32:59;;;;;;;10.80;8.90;;;;;;;26.64;61.08;100498.23;104972;1252;60429;-56
2023/08/05 04:35:26;;;;;;;9.90;8.80;;;;;;;26.67;61.09;100497.50;104957;1253;64898;-59
2023/08/05 04:37:54;;;;;;;9.50;8.50;;;;;;;26.71;61.06;100494.54;104967;1253;61411;-60
2023/08/05 04:40:21;;;;;;;10.10;8.20;;;;;;;26.77;61.03;100494.60;105154;1253;63741;-60
2023/08/05 04:42:49;;;;;;;10.20;8.20;;;;;;;26.81;60.88;100494.24;105059;1250;60560;-62
2023/08/05 04:45:16;;;;;;;10.30;8.70;;;;;;;26.86;60.70;100497.83;104944;1256;60499;-59
2023/08/05 04:47:44;;;;;;;12.80;8.80;;;;;;;26.91;60.55;100498.98;104919;1254;64883;-58
2023/08/05 04:50:11;;;;;;;13.50;9.50;;;;;;;26.94;60.30;100498.67;104809;1257;60366;-59
2023/08/05 04:52:39;;;;;;;11.70;9.40;;;;;;;26.97;60.26;100504.17;105095;1252;63791;-59
2023/08/05 04:55:09;;;;;;;10.70;8.90;;;;;;;27.03;60.01;100506.34;105155;1256;60454;-58
2023/08/05 04:57:36;;;;;;;17.60;8.30;;;;;;;27.09;59.85;100502.80;105244;1253;61013;-57
2023/08/05 05:00:05;;;;;;;11.50;9.10;;;;;;;27.14;59.69;100500.73;105217;1251;64984;-59
2023/08/05 05:02:32;;;;;;;14.30;9.50;;;;;;;27.18;59.34;100504.16;105033;1251;63864;-60
2023/08/05 05:05:01;;;;;;;12.80;9.70;;;;;;;27.19;59.14;100504.27;105030;1253;63727;-58
2023/08/05 05:07:29;;;;;;;11.40;9.70;;;;;;;27.22;58.73;100501.05;105112;1255;60910;-58
2023/08/05 05:09:56;;;;;;;11.70;9.30;;;;;;;27.23;58.82;100494.43;105163;1251;60738;-67
2023/08/05 05:12:24;;;;;;;12.50;8.80;;;;;;;27.27;59.08;100492.79;105129;1251;64872;-65
2023/08/05 05:14:51;;;;;;;10.80;8.90;;;;;;;27.31;59.01;100494.45;104880;1253;61292;-66
2023/08/05 05:17:19;;;;;;;10.50;9.40;;;;;;;27.37;58.78;100495.73;104771;1251;62690;-66
2023/08/05 05:19:46;;;;;;;13.00;10.40;;;;;;;27.41;58.83;100496.79;104796;1256;60878;-67
2023/08/05 05:22:17;;;;;;;16.80;10.60;;;;;;;27.43;58.76;100496.96;104653;1254;60891;-67
2023/08/05 05:24:45;;;;;;;11.70;9.60;;;;;;;27.45;58.54;100497.39;104831;1256;64923;-66
2023/08/05 05:27:17;;;;;;;12.70;10.10;;;;;;;27.46;58.40;100498.07;105173;1256;60452;-65
2023/08/05 05:29:45;;;;;;;11.30;10.10;;;;;;;27.47;57.97;100499.59;109215;1251;62553;-67
2023/08/05 05:32:13;;;;;;;12.30;9.90;;;;;;;27.50;57.95;100493.30;109150;1253;58338;-67
2023/08/05 05:34:40;;;;;;;10.70;8.80;;;;;;;27.57;57.84;100490.76;106085;1256;61655;-67
2023/08/05 05:37:08;;;;;;;11.00;9.30;;;;;;;27.65;57.71;100495.76;105057;1255;64998;-66
2023/08/05 05:39:36;;;;;;;11.10;9.60;;;;;;;27.70;57.73;100497.84;104937;1253;61338;-67
2023/08/05 05:42:04;;;;;;;12.70;9.80;;;;;;;27.75;57.85;100496.21;105320;1251;63799;-66
2023/08/05 05:44:31;;;;;;;11.00;9.80;;;;;;;27.78;57.88;100491.28;104737;1256;60559;-67
2023/08/05 05:46:59;;;;;;;12.20;10.00;;;;;;;27.83;57.76;100488.63;104882;1253;60439;-59
2023/08/05 05:49:27;;;;;;;10.20;9.20;;;;;;;27.87;57.73;100485.77;105071;1251;64933;-59
2023/08/05 05:51:55;;;;;;;11.40;8.70;;;;;;;27.94;57.39;100486.63;105446;1253;62589;-57
2023/08/05 05:54:23;;;;;;;12.90;9.00;;;;;;;28.01;57.26;100484.39;104967;1256;63754;-58
2023/08/05 05:56:50;;;;;;;10.30;9.20;;;;;;;28.07;56.85;100487.56;104952;1251;60537;-59
2023/08/05 05:59:18;;;;;;;11.10;9.20;;;;;;;28.12;56.44;100490.05;105018;1256;60218;-57
2023/08/05 06:01:46;;;;;;;14.00;9.30;;;;;;;28.16;56.19;100485.73;104888;1256;64877;-58
2023/08/05 06:04:13;;;;;;;10.40;9.30;;;;;;;28.22;56.25;100485.20;105521;1251;61362;-58
2023/08/05 06:06:41;;;;;;;10.60;8.60;;;;;;;28.27;56.21;100484.70;105019;1251;62455;-59
2023/08/05 06:09:09;;;;;;;11.00;8.80;;;;;;;28.29;55.95;100486.43;104848;1252;60559;-60
2023/08/05 06:11:36;;;;;;;11.50;9.30;;;;;;;28.31;55.51;100486.22;104991;1253;60383;-58
2023/08/05 06:14:05;;;;;;;12.60;8.80;;;;;;;28.36;55.06;100486.52;104959;1256;65388;-59
2023/08/05 06:16:32;;;;;;;11.20;8.80;;;;;;;28.42;54.96;100476.04;108065;1252;68535;-59
2023/08/05 06:19:03;;;;;;;10.80;8.60;;;;;;;28.48;55.26;100474.20;105519;1254;62485;-60
2023/08/05 06:21:30;;;;;;;11.00;8.80;;;;;;;28.52;55.03;100477.23;104943;1253;60556;-59
2023/08/05 06:23:58;;;;;;;10.90;8.90;;;;;;;28.56;54.61;100479.88;108194;1256;60492;-59
2023/08/05 06:26:26;;;;;;;12.00;9.10;;;;;;;28.61;54.61;100477.87;104867;1253;65291;-59
2023/08/05 06:28:54;;;;;;;13.50;8.70;;;;;;;28.66;55.14;100476.61;104849;1258;61353;-59
2023/08/05 06:31:21;;;;;;;10.60;8.50;;;;;;;28.74;54.84;100474.15;104700;1257;62482;-57
2023/08/05 06:33:49;;;;;;;13.60;9.30;;;;;;;28.81;54.34;100474.17;104962;1254;60552;-59
2023/08/05 06:36:16;;;;;;;10.90;8.90;;;;;;;28.86;53.93;100470.48;105108;1256;61209;-59
2023/08/05 06:38:45;;;;;;;10.40;8.70;;;;;;;28.91;53.80;100468.03;104740;1253;63775;-59
2023/08/05 06:41:12;;;;;;;9.60;8.40;;;;;;;28.96;54.03;100465.04;104719;1256;60422;-58
2023/08/05 06:43:40;;;;;;;10.00;8.40;;;;;;;29.02;54.29;100465.90;104596;1253;63755;-59
2023/08/05 06:46:07;;;;;;;9.70;8.30;;;;;;;29.05;54.15;100470.25;105087;1251;60608;-58
2023/08/05 06:48:35;;;;;;;10.20;7.90;;;;;;;29.09;54.09;100471.11;105180;1250;60751;-58
2023/08/05 06:51:03;;;;;;;9.30;8.40;;;;;;;29.14;53.79;100471.38;105224;1253;64957;-58
2023/08/05 06:53:30;;;;;;;9.60;8.30;;;;;;;29.20;53.57;100473.19;105145;1251;61391;-58
2023/08/05 06:56:02;;;;;;;9.40;8.00;;;;;;;29.26;53.77;100470.15;104995;1256;62582;-56
2023/08/05 06:58:30;;;;;;;9.40;8.20;;;;;;;29.32;53.65;100469.38;106219;1253;60594;-59
2023/08/05 07:00:57;;;;;;;11.10;8.60;;;;;;;29.39;53.65;100469.77;105109;1253;60819;-59
2023/08/05 07:03:26;;;;;;;12.00;8.60;;;;;;;29.46;53.59;100469.83;105208;1253;64964;-58
2023/08/05 07:05:55;;;;;;;10.00;8.80;;;;;;;29.52;53.81;100473.02;109067;1256;61356;-60
2023/08/05 07:08:23;;;;;;;10.80;8.50;;;;;;;29.58;53.97;100473.27;109103;1253;62586;-60
2023/08/05 07:10:57;;;;;;;10.30;8.10;;;;;;;29.63;53.89;100472.59;109154;1251;58679;-59
2023/08/05 07:13:25;;;;;;;9.50;7.90;;;;;;;29.73;53.91;100472.84;109129;1251;58272;-60
2023/08/05 07:16:00;;;;;;;10.60;7.70;;;;;;;29.83;54.01;100469.17;109069;1251;65443;-59
2023/08/05 07:18:28;;;;;;;10.50;8.70;;;;;;;29.95;53.83;100468.15;109127;1251;60095;-57
2023/08/05 07:20:56;;;;;;;10.00;8.10;;;;;;;30.05;53.16;100468.45;106503;1256;64146;-57
2023/08/05 07:23:24;;;;;;;10.20;8.40;;;;;;;30.14;52.82;100470.36;109127;1251;58451;-59
2023/08/05 07:25:52;;;;;;;18.00;8.20;;;;;;;30.24;52.42;100471.20;109123;1251;58396;-58
2023/08/05 07:28:19;;;;;;;10.90;8.60;;;;;;;30.31;51.92;100473.09;109168;1251;64970;-58
2023/08/05 07:30:47;;;;;;;11.40;8.30;;;;;;;30.37;51.89;100472.48;109224;1251;60291;-59
2023/08/05 07:33:16;;;;;;;10.70;8.00;;;;;;;30.44;52.06;100470.28;109127;1251;63791;-60
2023/08/05 07:35:44;;;;;;;10.90;7.90;;;;;;;30.50;51.55;100472.64;108251;1253;61266;-59
2023/08/05 07:38:11;;;;;;;8.70;7.60;;;;;;;30.57;51.65;100474.85;105210;1253;61738;-59
2023/08/05 07:40:40;;;;;;;9.00;7.20;;;;;;;30.61;51.14;100475.22;105504;1253;63686;-59
2023/08/05 07:44:03;;;;;;;10.50;8.50;;;;;;;30.40;50.69;100474.30;102118;1292;600897;-61
2023/08/05 07:46:31;;;;;;;9.20;7.20;;;;;;;30.65;50.35;100474.27;105169;1265;60169;-59
2023/08/05 07:49:00;;;;;;;9.80;7.60;;;;;;;30.71;50.32;100475.11;104364;1264;59209;-60
2023/08/05 07:51:29;;;;;;;8.40;7.50;;;;;;;30.73;50.04;100477.68;105179;1264;62221;-59
2023/08/05 07:53:57;;;;;;;12.40;7.80;;;;;;;30.76;49.99;100482.48;104440;1264;61347;-59
2023/08/05 07:56:25;;;;;;;10.30;8.10;;;;;;;30.78;49.77;100480.73;104532;1265;63845;-59
2023/08/05 07:58:53;;;;;;;9.50;7.40;;;;;;;30.80;49.76;100479.39;104309;1269;201763;-59
2023/08/05 08:01:22;;;;;;;9.90;7.50;;;;;;;30.82;49.64;100480.39;104413;1261;59224;-60
2023/08/05 08:03:53;;;;;;;9.50;7.50;;;;;;;30.83;49.62;100482.83;104823;1263;63903;-60
2023/08/05 08:06:22;;;;;;;8.90;7.60;;;;;;;30.87;49.60;100480.42;104392;1262;61472;-59
2023/08/05 08:08:49;;;;;;;10.90;7.90;;;;;;;30.89;48.88;100481.77;104507;1266;63747;-59
2023/08/05 08:11:17;;;;;;;9.20;7.40;;;;;;;30.91;47.45;100478.36;104338;1261;59735;-57
2023/08/05 08:13:45;;;;;;;11.00;7.40;;;;;;;30.94;47.97;100480.35;104971;1261;59690;-57
2023/08/05 08:16:13;;;;;;;10.20;6.70;;;;;;;30.98;48.04;100478.50;104483;1266;66610;-61
2023/08/05 08:18:41;;;;;;;9.50;6.90;;;;;;;31.01;47.30;100472.17;104591;1266;62025;-58
2023/08/05 08:21:10;;;;;;;9.80;7.00;;;;;;;31.04;47.13;100471.73;104383;1265;63698;-57
2023/08/05 08:23:37;;;;;;;10.30;7.60;;;;;;;31.09;46.88;100471.71;104282;1266;59659;-58
2023/08/05 08:26:04;;;;;;;9.60;7.00;;;;;;;31.13;46.43;100472.84;104326;1267;59772;-60
2023/08/05 08:28:32;;;;;;;9.70;6.90;;;;;;;31.16;46.37;100479.89;104399;1261;62885;-60
2023/08/05 08:30:59;;;;;;;10.50;7.40;;;;;;;31.19;46.05;100481.43;104478;1264;61410;-59
2023/08/05 08:33:28;;;;;;;9.10;6.80;;;;;;;31.21;45.94;100482.31;104391;1266;62715;-59
2023/08/05 08:35:55;;;;;;;10.50;7.70;;;;;;;31.27;46.34;100477.86;104884;1267;61147;-60
2023/08/05 08:38:23;;;;;;;8.30;6.80;;;;;;;31.32;46.60;100476.05;104353;1266;59666;-59
2023/08/05 08:40:51;;;;;;;12.10;7.60;;;;;;;31.37;46.60;100480.88;104511;1261;64116;-58
2023/08/05 08:43:20;;;;;;;8.50;6.90;;;;;;;31.42;45.78;100476.29;104623;1266;60264;-59
2023/08/05 08:45:51;;;;;;;12.10;7.00;;;;;;;31.46;45.04;100470.19;105224;1266;63770;-58
2023/08/05 08:48:19;;;;;;;8.40;6.50;;;;;;;31.49;44.29;100470.59;104964;1263;59570;-58
2023/08/05 08:50:51;;;;;;;9.00;6.80;;;;;;;31.53;44.03;100474.06;104468;1267;61979;-58
2023/08/05 08:53:23;;;;;;;7.80;6.60;;;;;;;31.58;44.41;100472.05;104282;1264;62909;-58
2023/08/05 08:55:51;;;;;;;9.30;7.00;;;;;;;31.65;44.38;100471.83;104843;1266;61896;-59
2023/08/05 08:58:19;;;;;;;9.50;6.60;;;;;;;31.72;44.37;100474.42;105750;1266;66273;-58
2023/08/05 09:00:46;;;;;;;9.80;7.30;;;;;;;31.77;44.60;100474.56;104461;1269;60616;-59
2023/08/05 09:03:14;;;;;;;8.60;6.60;;;;;;;31.82;44.49;100477.91;104499;1267;59775;-59
2023/08/05 09:05:52;;;;;;;11.50;7.50;;;;;;;31.87;43.91;100484.55;104488;1269;64139;-59
2023/08/05 09:08:20;;;;;;;9.70;7.00;;;;;;;31.94;44.37;100484.20;104638;1267;68733;-58
2023/08/05 09:10:47;;;;;;;11.10;7.50;;;;;;;31.98;44.32;100488.52;104652;1261;63863;-59
2023/08/05 09:13:17;;;;;;;9.70;7.40;;;;;;;32.02;44.23;100485.83;104393;1266;59637;-59
2023/08/05 09:15:45;;;;;;;8.80;6.60;;;;;;;32.07;43.94;100482.48;105481;1263;59755;-58
2023/08/05 09:18:13;;;;;;;10.30;6.70;;;;;;;32.13;44.41;100479.70;104397;1270;64087;-58
2023/08/05 09:20:41;;;;;;;9.50;6.30;;;;;;;32.18;44.37;100486.05;104514;1261;61929;-60
2023/08/05 09:23:09;;;;;;;8.40;6.70;;;;;;;32.24;43.61;100488.95;104351;1263;64466;-58
2023/08/05 09:25:41;;;;;;;9.60;7.50;;;;;;;32.29;44.01;100491.22;104485;1266;59755;-59
2023/08/05 09:28:08;;;;;;;6.60;5.20;;;;;;;32.33;43.95;100491.02;108436;1261;59401;-58
2023/08/05 09:30:36;;;;;;;7.90;6.10;;;;;;;32.38;43.60;100493.16;105703;1266;62874;-58
2023/08/05 09:33:04;;;;;;;8.20;5.80;;;;;;;32.44;43.74;100494.76;104505;1270;60105;-59
2023/08/05 09:35:32;;;;;;;10.80;7.50;;;;;;;32.49;43.90;100490.05;105216;1261;62548;-57
2023/08/05 09:38:01;;;;;;;10.10;7.60;;;;;;;32.53;43.01;100490.88;104350;1265;59748;-58
2023/08/05 09:40:32;;;;;;;9.40;6.60;;;;;;;32.56;42.55;100487.73;104468;1263;59759;-58
2023/08/05 09:42:59;;;;;;;9.20;7.30;;;;;;;32.58;42.75;100486.42;104667;1267;64117;-60
2023/08/05 09:45:28;;;;;;;9.00;6.40;;;;;;;32.61;42.87;100483.67;104370;1264;60096;-59
2023/08/05 09:48:31;;;;;;;8.50;7.60;;;;;;;32.64;42.82;100486.20;104264;1264;63822;-59
2023/08/05 09:50:51;;;;;;;8.40;7.10;;;;;;;32.68;42.39;100487.75;104384;1264;59659;-60
2023/08/05 09:53:19;;;;;;;10.70;7.70;;;;;;;32.68;42.24;100483.45;104604;1264;59772;-60
2023/08/05 09:55:47;;;;;;;10.00;7.10;;;;;;;32.69;42.22;100479.24;104222;1270;64387;-59
2023/08/05 09:58:15;;;;;;;9.10;7.00;;;;;;;32.70;42.43;100478.77;104389;1264;61424;-58
2023/08/05 10:00:48;;;;;;;9.70;7.90;;;;;;;32.71;42.42;100477.52;104451;1267;62472;-59
2023/08/05 10:03:15;;;;;;;8.30;7.50;;;;;;;32.72;42.43;100475.12;104657;1269;60115;-59
2023/08/05 10:05:47;;;;;;;10.50;8.10;;;;;;;32.73;42.42;100476.48;104726;1264;59580;-59
2023/08/05 10:08:16;;;;;;;9.70;7.80;;;;;;;32.73;42.49;100474.15;104716;1265;64834;-58
2023/08/05 10:10:44;;;;;;;8.90;7.50;;;;;;;32.74;42.75;100474.03;105179;1261;60259;-60
2023/08/05 10:13:16;;;;;;;9.60;7.30;;;;;;;32.74;42.41;100473.27;104844;1265;63694;-58
2023/08/05 10:15:46;;;;;;;9.50;7.60;;;;;;;32.75;42.36;100469.73;105212;1260;59695;-59
2023/08/05 10:18:17;;;;;;;8.30;7.10;;;;;;;32.77;42.76;100469.30;104512;1264;59736;-57
2023/08/05 10:20:54;;;;;;;8.80;7.90;;;;;;;32.81;42.54;100467.23;104518;1260;62863;-58
2023/08/05 10:23:25;;;;;;;9.70;7.30;;;;;;;32.85;42.08;100463.55;104543;1263;61344;-57
2023/08/05 10:25:58;;;;;;;8.70;7.10;;;;;;;32.90;42.01;100465.90;105136;1261;63898;-58
2023/08/05 10:28:25;;;;;;;9.70;7.80;;;;;;;32.94;41.68;100473.52;104412;1260;59710;-59
2023/08/05 10:30:56;;;;;;;10.00;8.10;;;;;;;32.99;41.80;100470.86;104443;1263;60762;-58
2023/08/05 10:33:27;;;;;;;22.70;20.50;;;;;;;33.03;41.50;100472.45;104868;1263;64075;-58
2023/08/05 10:36:07;;;;;;;11.30;9.60;;;;;;;33.06;41.26;100467.88;104636;1264;63613;-57
2023/08/05 10:38:41;;;;;;;23.60;21.40;;;;;;;33.09;41.33;100463.68;104891;1264;63662;-59
2023/08/05 10:41:10;;;;;;;22.80;20.50;;;;;;;33.12;41.68;100462.86;104812;1259;59765;-58
2023/08/05 10:43:38;;;;;;;20.70;18.60;;;;;;;33.15;41.17;100459.66;104923;1257;59723;-58
2023/08/05 10:46:05;;;;;;;22.80;20.60;;;;;;;33.19;40.90;100454.77;104919;1260;62823;-58
2023/08/05 10:48:34;;;;;;;16.30;14.70;;;;;;;33.24;41.17;100458.80;105354;1260;60094;-59
2023/08/05 10:51:09;;;;;;;11.00;8.60;;;;;;;33.28;41.18;100457.13;105007;1260;63831;-59
2023/08/05 10:53:36;;;;;;;11.60;8.20;;;;;;;33.34;41.09;100457.34;104784;1263;59674;-58
2023/08/05 10:56:11;;;;;;;20.90;18.80;;;;;;;33.40;40.67;100459.55;104795;1260;59663;-59
2023/08/05 10:58:49;;;;;;;11.60;10.10;;;;;;;33.45;40.48;100454.43;108782;1260;64087;-59
2023/08/05 11:01:17;;;;;;;13.00;11.30;;;;;;;33.49;40.06;100453.28;108824;1260;60806;-59
2023/08/05 11:03:46;;;;;;;15.70;13.90;;;;;;;33.53;40.33;100452.95;108895;1260;63678;-59
2023/08/05 11:06:14;;;;;;;9.80;8.80;;;;;;;33.58;40.73;100448.31;108931;1257;59253;-59
2023/08/05 11:08:42;;;;;;;11.10;10.00;;;;;;;33.63;41.11;100445.40;108853;1256;58587;-59
2023/08/05 11:11:13;;;;;;;21.30;15.10;;;;;;;33.69;41.01;100446.66;108864;1258;64600;-59
2023/08/05 11:13:44;;;;;;;18.80;15.90;;;;;;;33.74;40.98;100448.04;104862;1260;60075;-59
2023/08/05 11:16:13;;;;;;;18.60;16.60;;;;;;;33.80;40.31;100445.79;105655;1260;63863;-59
2023/08/05 11:18:42;;;;;;;15.90;13.70;;;;;;;33.88;40.35;100444.55;104837;1260;60806;-58